• Join FlightAware (Why Join?)
  • Login
  • US Flag 
12:36AM EDT


 

Airport Tracker/Info


-or-


 

Live Flight TrackerFlight Track Log ✈ PJC79 ✈ 18-Jun-2013 ✈ KPIT - KSWF

Flight Track Log - Related Links

Times and Time Zones

All times are in EDT time to prevent confusion due to time zone crossing. See the PJC79 flight status page for this flight to view local times or setup timezone preferences in your user account.

Time Position Orientation Groundspeed Altitude Reporting Facility
EDT Latitude Longitude Course Direction KTS MPH feet Rate Location/Type
04:40PM 40.6272 -80.2028 43° Northeast 323 372 8,900  Level Cleveland Center
04:41PM 40.6814 -80.1422 40° Northeast 274 315 12,300 3,060 Climbing Cleveland Center
04:42PM 40.7331 -80.0681 47° Northeast 262 302 15,100 2,760 Climbing Cleveland Center
04:43PM 40.7492 -79.9556 79° East 273 314 17,900 2,460 Climbing Cleveland Center
04:44PM 40.6250 -79.5345 82° East  Level Estimated
04:44PM 40.7589 -79.8347 84° East 294 338 20,100  Level Cleveland Center
04:45PM 40.7706 -79.7167 83° East 318 366 22,600 2,400 Climbing Cleveland Center
04:46PM 40.7819 -79.5933 83° East 330 380 24,900 2,340 Climbing Cleveland Center
04:47PM 40.7933 -79.4697 83° East 335 386 27,300 2,040 Climbing Cleveland Center
04:48PM 40.8047 -79.3461 83° East 335 386 29,000 840 Climbing Cleveland Center
04:49PM 40.8511 -79.2133 65° Northeast 365 420 29,000  Level Cleveland Center
04:50PM 40.8681 -79.0647 81° East 377 434 29,000  Level Cleveland Center
04:51PM 40.8761 -78.9025 86° East 413 475 29,000  Level Cleveland Center
04:53PM 40.8872 -78.6139 87° East 443 510 29,000  Level New York Center
04:54PM 40.8939 -78.4472 87° East 449 517 29,000  Level New York Center
04:55PM 40.9017 -78.2914 86° East 464 534 29,000  Level New York Center
04:56PM 40.9103 -78.1219 86° East 464 534 29,000  Level New York Center
04:57PM 40.9289 -77.9536 82° East 457 526 29,000 -840 Level New York Center
04:58PM 40.9958 -77.8094 58° Northeast 445 512 27,400 -1,740 Descending New York Center
04:59PM 41.0606 -77.6675 59° Northeast 445 512 25,500 -2,160 Descending New York Center
05:00PM 41.1297 -77.5147 59° Northeast 435 501 23,100 -1,260 Descending New York Center
05:01PM 41.1894 -77.3828 59° Northeast 428 493 23,000 -60 Descending New York Center
05:02PM 41.2467 -77.2475 61° Northeast 423 487 23,000  Level New York Center
05:03PM 41.3064 -77.1069 60° Northeast 423 487 23,000  Level New York Center
05:04PM 41.3681 -76.9689 59° Northeast 423 487 23,000  Level New York Center
05:05PM 41.4269 -76.8331 60° Northeast 423 487 23,000  Level New York Center
05:06PM 41.4883 -76.6919 60° Northeast 423 487 23,000  Level New York Center
05:07PM 41.5450 -76.5556 61° Northeast 423 487 23,000  Level New York Center
05:08PM 41.5942 -76.4433 60° Northeast 423 487 23,000  Level New York Center
05:09PM 41.6597 -76.2878 61° Northeast 423 487 23,000 -660 Level New York Center
05:10PM 41.7183 -76.1481 61° Northeast 423 487 21,800 -1,740 Descending New York Center
05:12PM 41.8267 -75.8922 60° Northeast 400 460 17,700 -2,100 Descending Boston Center
05:13PM 41.8850 -75.7531 61° Northeast 369 425 15,400 -2,100 Descending Boston Center
05:14PM 41.9300 -75.6383 62° Northeast 347 399 13,600 -1,200 Descending Boston Center
05:15PM 41.9769 -75.5289 60° Northeast 342 394 13,000 -300 Descending Boston Center
05:16PM 42.0236 -75.4194 60° Northeast 342 394 13,000 -120 Level Boston Center
05:17PM 42.0703 -75.3042 61° Northeast 342 394 12,800 -780 Descending Boston Center
05:18PM 42.0997 -75.2075 68° East 342 394 11,500 -900 Descending Boston Center
05:19PM 42.1447 -75.0694 66° East 336 387 11,000 -300 Descending Boston Center
05:20PM 42.1683 -74.9528 75° East 331 381 11,000  Level Boston Center
05:21PM 42.1289 -74.8419 116° Southeast 302 348 11,000 -540 Level Boston Center
05:22PM 42.0500 -74.6667 121° Southeast 318 366 9,600 -1,260 Descending New York TRACON
05:23PM 42.0167 -74.5667 114° Southeast 285 328 7,800 -1,620 Descending New York TRACON
05:25PM 41.9667 -74.4833 129° Southeast 278 320 6,200 -960 Descending New York TRACON
05:25PM 41.9167 -74.4167 135° Southeast 267 307 5,900 -540 Descending New York TRACON
05:26PM 41.8667 -74.3500 135° Southeast 259 298 5,200 -960 Descending New York TRACON
05:27PM 41.8167 -74.2833 135° Southeast 233 268 4,000 -660 Descending New York TRACON
05:28PM 41.7667 -74.2333 143° Southeast 241 277 3,900 -60 Descending New York TRACON
05:29PM 41.7167 -74.1667 135° Southeast 264 304 3,900  Level New York TRACON
05:30PM 41.6500 -74.1000 143° Southeast 261 300 3,900 -120 Level New York TRACON
05:31PM 41.6000 -74.0667 154° Southeast 250 288 3,700 -960 Descending New York TRACON
05:32PM 41.5333 -74.0333 159° South 230 265 2,000 -1,740 Descending New York TRACON